»·PEaware :: N113JC 1L8-KDTA

N113JC :: 1L8-KDTA

FLIGHT INFORMATION

Flight Status: Arrived
Operator: Privately registered:
United States
More flights under this callsign
Pilot: Tanner C. (11250)
Aircraft: EMBRAER PHENOM 300
(E55P)
More flights by this aircraft type
Origin: 1L8 Hurricane
United States
Destination: KDTA Delta Mun
United States
More flights between these airports :: More routes between these airports
Route:
File this flight plan on PilotEdge
Remarks:
Altitude:
(Current/Filed)
20,000ft
Speed:
(Current/Filed)
400kts
Departed: 24-Jan-23 06:39 PM
Arrived: 24-Jan-23 07:27 PM
Distance/Time
Traveled:
140nm/0:48
Distance/Time
To Go:
Arrived

Flight Plot

Page will automatically refresh every two minutes.

Flight plan parsing failed; only flown route is shown


Map Options




Map Legend


Flown Route
Filed Route
Departure Airport
Arrival Airport
Navaid (VOR, NDB)
Fix

Horizontal Profiles

Position Reports

Time Latitude Longitude Heading Altitude Ground
Speed
24-Jan-23 18:19 37.140628 -113.304064 107 3345ft 0kts
24-Jan-23 18:20 37.140628 -113.304064 107 3345ft 0kts
24-Jan-23 18:21 37.140628 -113.304064 107 3345ft 0kts
24-Jan-23 18:22 37.140628 -113.304064 107 3345ft 0kts
24-Jan-23 18:23 37.140628 -113.304064 107 3345ft 0kts
24-Jan-23 18:24 37.140628 -113.304064 107 3345ft 0kts
24-Jan-23 18:25 37.140628 -113.304064 107 3345ft 0kts
24-Jan-23 18:26 37.140597 -113.303998 149 3345ft 1kts
24-Jan-23 18:27 37.139866 -113.304252 63 3345ft 0kts
24-Jan-23 18:28 37.139938 -113.304163 16 3345ft 0kts
24-Jan-23 18:29 37.139938 -113.304163 16 3345ft 0kts
24-Jan-23 18:30 37.139938 -113.304163 16 3345ft 0kts
24-Jan-23 18:31 37.140020 -113.304541 272 3343ft 0kts
24-Jan-23 18:32 37.140020 -113.304541 272 3343ft 0kts
24-Jan-23 18:33 37.140020 -113.304541 272 3343ft 0kts
24-Jan-23 18:34 37.140154 -113.305300 291 3337ft 0kts
24-Jan-23 18:35 37.140154 -113.305300 291 3337ft 0kts
24-Jan-23 18:36 37.142072 -113.305319 17 3337ft 23kts
24-Jan-23 18:37 37.144739 -113.304219 203 3335ft 1kts
24-Jan-23 18:38 37.133376 -113.308910 202 3424ft 134kts
24-Jan-23 18:39 37.094991 -113.328076 206 5992ft 159kts
24-Jan-23 18:40 37.094840 -113.363948 5 8148ft 174kts
24-Jan-23 18:41 37.134741 -113.310254 46 10422ft 246kts
24-Jan-23 18:42 37.178937 -113.238760 46 13467ft 272kts
24-Jan-23 18:43 37.225744 -113.161941 44 16614ft 282kts
24-Jan-23 18:44 37.236853 -113.062202 101 19246ft 346kts
24-Jan-23 18:45 37.205023 -112.942942 100 20007ft 374kts
24-Jan-23 18:46 37.196040 -112.819411 57 20012ft 350kts
24-Jan-23 18:47 37.269632 -112.753290 31 20001ft 346kts
24-Jan-23 18:48 37.343596 -112.675736 32 20003ft 347kts
24-Jan-23 18:49 37.417373 -112.596927 32 19965ft 350kts
24-Jan-23 18:50 37.491577 -112.517235 32 19946ft 349kts
24-Jan-23 18:51 37.565267 -112.437858 32 19943ft 349kts
24-Jan-23 18:52 37.638968 -112.358251 32 19943ft 348kts
24-Jan-23 18:53 37.720531 -112.323429 341 19940ft 320kts
24-Jan-23 18:54 37.803695 -112.362838 339 19942ft 320kts
24-Jan-23 18:55 37.886287 -112.404499 338 19990ft 318kts
24-Jan-23 18:56 37.968195 -112.446339 338 19990ft 318kts
24-Jan-23 18:57 38.047193 -112.486866 338 19986ft 286kts
24-Jan-23 18:58 38.115662 -112.522074 338 20003ft 263kts
24-Jan-23 18:59 38.185750 -112.558186 338 19962ft 277kts
24-Jan-23 19:00 38.255411 -112.594168 338 19984ft 265kts
24-Jan-23 19:01 38.324596 -112.629956 339 19964ft 275kts
24-Jan-23 19:02 38.402808 -112.625473 2 19817ft 293kts
24-Jan-23 19:03 38.482754 -112.615109 2 18611ft 300kts
24-Jan-23 19:04 38.569940 -112.603612 3 17405ft 321kts
24-Jan-23 19:05 38.653715 -112.592460 2 16166ft 289kts
24-Jan-23 19:06 38.731117 -112.585967 356 14943ft 274kts
24-Jan-23 19:07 38.810739 -112.588063 356 13731ft 295kts
24-Jan-23 19:08 38.895217 -112.591007 356 12906ft 308kts
24-Jan-23 19:09 38.981238 -112.594549 356 12071ft 310kts
24-Jan-23 19:10 39.064599 -112.585632 12 11956ft 296kts
24-Jan-23 19:11 39.144098 -112.558903 11 11872ft 281kts
24-Jan-23 19:12 39.214337 -112.535203 11 10509ft 254kts
24-Jan-23 19:13 39.283269 -112.525892 1 8497ft 248kts
24-Jan-23 19:14 39.349899 -112.520534 1 6979ft 235kts
24-Jan-23 19:15 39.412079 -112.521055 357 5961ft 216kts
24-Jan-23 19:16 39.447022 -112.508540 165 5910ft 136kts
24-Jan-23 19:17 39.410093 -112.502147 179 5323ft 134kts
24-Jan-23 19:18 39.374118 -112.502202 174 5044ft 146kts
24-Jan-23 19:19 39.384091 -112.454049 32 7386ft 202kts
24-Jan-23 19:20 39.425626 -112.442993 255 7465ft 146kts
24-Jan-23 19:21 39.388805 -112.454927 230 5992ft 157kts
24-Jan-23 19:22 39.414290 -112.486450 347 5646ft 153kts
24-Jan-23 19:23 39.448302 -112.488631 239 5828ft 156kts
24-Jan-23 19:24 39.414428 -112.501756 182 5269ft 110kts
24-Jan-23 19:25 39.383976 -112.502185 183 4759ft 96kts
24-Jan-23 19:26 39.375101 -112.502803 315 4748ft 5kts
24-Jan-23 19:27 39.378201 -112.506765 315 4751ft 24kts
24-Jan-23 19:28 39.382658 -112.512446 315 4753ft 17kts
24-Jan-23 19:29 39.384637 -112.511622 317 4757ft 7kts
24-Jan-23 19:30 39.385500 -112.512345 225 4756ft 0kts
24-Jan-23 19:31 39.385500 -112.512345 225 4756ft 0kts
24-Jan-23 19:32 39.385500 -112.512345 225 4756ft 0kts

Navigation Log

Ident Type
Flight plan parsing failed, navigation log unavailable